createdAt,value
2019-05-21T00:00:57.069Z,34.50
2019-05-21T00:01:56.989Z,37.30
2019-05-21T00:02:56.893Z,34.30
2019-05-21T00:03:56.817Z,37.50
2019-05-21T00:04:56.733Z,33.70
2019-05-21T00:05:56.652Z,32.20
2019-05-21T00:06:56.592Z,36.40
2019-05-21T00:07:56.485Z,35.50
2019-05-21T00:08:56.399Z,31.70
2019-05-21T00:09:56.331Z,33.40
2019-05-21T00:10:56.242Z,35.60
2019-05-21T00:11:56.182Z,33.30
2019-05-21T00:12:56.075Z,30.40
2019-05-21T00:13:55.998Z,32.00
2019-05-21T00:14:55.910Z,35.00
2019-05-21T00:15:55.836Z,32.50
2019-05-21T00:16:55.757Z,33.40
2019-05-21T00:17:55.671Z,33.60
2019-05-21T00:18:55.577Z,36.70
2019-05-21T00:19:55.503Z,33.10
2019-05-21T00:20:55.433Z,33.70
2019-05-21T00:21:55.358Z,34.90
2019-05-21T00:22:55.254Z,37.10
2019-05-21T00:23:55.175Z,37.30
2019-05-21T00:24:55.102Z,39.20
2019-05-21T00:25:55.006Z,37.30
2019-05-21T00:26:54.937Z,40.30
2019-05-21T00:27:54.861Z,41.10
2019-05-21T00:28:54.759Z,43.70
2019-05-21T00:29:54.675Z,43.30
2019-05-21T00:30:54.611Z,46.40
2019-05-21T00:31:54.535Z,44.40
2019-05-21T00:32:54.429Z,45.00
2019-05-21T00:33:54.353Z,46.90
2019-05-21T00:34:54.266Z,47.40
2019-05-21T00:35:54.193Z,47.40
2019-05-21T00:36:54.257Z,47.70
2019-05-21T00:37:54.042Z,47.20
2019-05-21T00:38:53.938Z,47.60
2019-05-21T00:39:53.865Z,42.40
2019-05-21T00:40:53.772Z,44.30
2019-05-21T00:41:53.699Z,47.60
2019-05-21T00:42:53.616Z,46.50
2019-05-21T00:43:53.531Z,45.50
2019-05-21T00:44:53.463Z,43.50
2019-05-21T00:45:53.366Z,42.00
2019-05-21T00:46:53.279Z,42.70
2019-05-21T00:47:53.215Z,43.90
2019-05-21T00:48:53.116Z,46.40
2019-05-21T00:49:53.038Z,43.90
2019-05-21T00:50:52.941Z,43.50
2019-05-21T00:52:06.451Z,45.80
2019-05-21T00:52:52.824Z,45.30
2019-05-21T00:53:52.711Z,46.80
2019-05-21T00:54:52.619Z,50.00
2019-05-21T00:55:52.539Z,48.20
2019-05-21T00:56:52.458Z,48.90
2019-05-21T00:57:52.391Z,52.40
2019-05-21T00:58:52.288Z,49.80
2019-05-21T00:59:52.218Z,51.20
2019-05-21T01:00:52.127Z,52.70
2019-05-21T01:01:52.050Z,57.20
2019-05-21T01:02:51.973Z,54.30
2019-05-21T01:03:51.877Z,52.60
2019-05-21T01:05:00.327Z,54.20
2019-05-21T01:05:51.724Z,54.80
2019-05-21T01:06:51.625Z,55.50
2019-05-21T01:07:51.569Z,52.90
2019-05-21T01:08:51.471Z,53.10
2019-05-21T01:09:51.385Z,56.60
2019-05-21T01:10:51.298Z,56.80
2019-05-21T01:11:51.218Z,58.40
2019-05-21T01:12:51.152Z,54.90
2019-05-21T01:13:51.059Z,57.30
2019-05-21T01:14:50.973Z,57.30
2019-05-21T01:15:50.945Z,54.50
2019-05-21T01:16:50.874Z,57.30
2019-05-21T01:17:50.740Z,60.80
2019-05-21T01:18:50.662Z,60.80
2019-05-21T01:19:50.559Z,59.00
2019-05-21T01:20:50.486Z,56.30
2019-05-21T01:21:50.399Z,60.00
2019-05-21T01:22:50.330Z,56.90
2019-05-21T01:23:50.233Z,53.50
2019-05-21T01:24:50.157Z,55.90
2019-05-21T01:25:50.065Z,58.40
2019-05-21T01:26:49.987Z,58.60
2019-05-21T01:27:49.917Z,56.40
2019-05-21T01:28:49.821Z,59.90
2019-05-21T01:29:49.737Z,57.50
2019-05-21T01:30:49.658Z,56.80
2019-05-21T01:31:49.567Z,57.70
2019-05-21T01:32:49.511Z,57.90
2019-05-21T01:33:49.402Z,58.80
2019-05-21T01:34:49.326Z,59.50
2019-05-21T01:35:49.245Z,61.70
2019-05-21T01:36:49.161Z,62.80
2019-05-21T01:37:49.085Z,59.90
2019-05-21T01:38:48.997Z,63.10
2019-05-21T01:39:48.914Z,64.20
2019-05-21T01:40:48.833Z,66.00
2019-05-21T01:41:48.749Z,66.10
2019-05-21T01:42:48.674Z,69.70
2019-05-21T01:43:48.581Z,62.70
2019-05-21T01:44:48.505Z,63.90
2019-05-21T01:45:48.419Z,65.00
2019-05-21T01:46:48.334Z,66.60
2019-05-21T01:47:48.271Z,65.30
2019-05-21T01:48:48.170Z,65.80
2019-05-21T01:49:48.085Z,67.80
2019-05-21T01:50:48.009Z,68.80
2019-05-21T01:51:47.921Z,65.20
2019-05-21T01:52:47.880Z,63.80
2019-05-21T01:53:47.765Z,66.00
2019-05-21T01:54:47.670Z,64.30
2019-05-21T01:55:47.636Z,64.60
2019-05-21T01:56:47.507Z,63.10
2019-05-21T01:57:47.444Z,65.30
2019-05-21T01:58:47.349Z,67.70
2019-05-21T01:59:47.268Z,63.30
2019-05-21T02:00:47.176Z,66.40
2019-05-21T02:01:47.106Z,69.70
2019-05-21T02:02:47.023Z,68.30
2019-05-21T02:03:46.929Z,69.60
2019-05-21T02:04:46.854Z,66.30
2019-05-21T02:05:46.765Z,66.80
2019-05-21T02:06:49.214Z,65.60
2019-05-21T02:07:46.618Z,67.00
2019-05-21T02:08:46.513Z,67.00
2019-05-21T02:09:46.437Z,70.20
2019-05-21T02:10:46.356Z,67.00
2019-05-21T02:11:46.274Z,68.80
2019-05-21T02:12:46.213Z,68.00
2019-05-21T02:13:46.114Z,69.10
2019-05-21T02:14:46.029Z,70.20
2019-05-21T02:15:45.943Z,74.30
2019-05-21T02:16:45.857Z,70.80
2019-05-21T02:17:45.798Z,75.40
2019-05-21T02:18:45.712Z,72.70
2019-05-21T02:19:45.616Z,68.00
2019-05-21T02:20:45.535Z,71.00
2019-05-21T02:21:45.451Z,71.40
2019-05-21T02:22:45.366Z,78.50
2019-05-21T02:23:45.308Z,72.60
2019-05-21T02:24:45.197Z,72.20
2019-05-21T02:25:45.123Z,72.50
2019-05-21T02:26:45.036Z,75.50
2019-05-21T02:27:44.953Z,73.30
2019-05-21T02:28:44.885Z,73.10
2019-05-21T02:29:44.801Z,71.20
2019-05-21T02:30:44.706Z,69.40
2019-05-21T02:31:44.631Z,76.70
2019-05-21T02:32:44.543Z,66.80
2019-05-21T02:33:44.467Z,75.60
2019-05-21T02:34:44.371Z,69.20
2019-05-21T02:35:54.119Z,67.90
2019-05-21T02:36:44.210Z,71.00
2019-05-21T02:37:44.129Z,69.20
2019-05-21T02:38:44.054Z,71.60
2019-05-21T02:39:43.965Z,74.00
2019-05-21T02:40:43.884Z,72.80
2019-05-21T02:41:43.798Z,70.80
2019-05-21T02:42:43.712Z,69.10
2019-05-21T02:43:43.662Z,71.20
2019-05-21T02:44:43.558Z,75.60
2019-05-21T02:45:43.473Z,72.90
2019-05-21T02:46:43.388Z,76.30
2019-05-21T02:47:43.306Z,73.60
2019-05-21T02:48:43.230Z,71.30
2019-05-21T02:49:43.137Z,69.60
2019-05-21T02:50:43.082Z,72.90
2019-05-21T02:51:42.978Z,72.80
2019-05-21T02:52:42.883Z,71.10
2019-05-21T02:53:42.818Z,68.90
2019-05-21T02:54:42.791Z,69.40
2019-05-21T02:55:42.650Z,71.40
2019-05-21T02:56:42.563Z,73.60
2019-05-21T02:57:42.498Z,75.10
2019-05-21T02:58:42.428Z,75.50
2019-05-21T02:59:42.315Z,75.60
2019-05-21T03:00:42.232Z,79.20
2019-05-21T03:01:42.151Z,76.30
2019-05-21T03:02:42.061Z,73.60
2019-05-21T03:03:41.997Z,73.50
2019-05-21T03:04:41.901Z,75.10
2019-05-21T03:05:41.822Z,74.70
2019-05-21T03:06:41.732Z,73.30
2019-05-21T03:07:41.655Z,73.70
2019-05-21T03:08:41.592Z,74.60
2019-05-21T03:09:41.489Z,78.30
2019-05-21T03:10:41.408Z,71.90
2019-05-21T03:11:41.325Z,75.10
2019-05-21T03:12:41.244Z,76.90
2019-05-21T03:13:41.168Z,70.60
2019-05-21T03:14:41.067Z,69.80
2019-05-21T03:15:41.001Z,74.30
2019-05-21T03:16:40.906Z,79.60
2019-05-21T03:17:40.822Z,77.90
2019-05-21T03:18:40.761Z,82.60
2019-05-21T03:19:40.661Z,81.00
2019-05-21T03:20:40.577Z,79.90
2019-05-21T03:21:40.505Z,85.60
2019-05-21T03:22:40.414Z,87.50
2019-05-21T03:23:40.341Z,86.60
2019-05-21T03:24:40.258Z,83.90
2019-05-21T03:25:40.164Z,90.30
2019-05-21T03:26:40.091Z,95.20
2019-05-21T03:27:40.006Z,91.10
2019-05-21T03:28:39.928Z,94.80
2019-05-21T03:29:39.836Z,95.80
2019-05-21T03:30:39.754Z,95.00
2019-05-21T03:31:39.675Z,88.80
2019-05-21T03:32:39.593Z,100.00
2019-05-21T03:33:39.668Z,92.50
2019-05-21T03:34:39.454Z,96.80
2019-05-21T03:35:39.344Z,90.50
2019-05-21T03:36:39.257Z,90.90
2019-05-21T03:37:39.175Z,90.50
2019-05-21T03:38:39.108Z,97.70
2019-05-21T03:39:39.018Z,107.90
2019-05-21T03:40:38.936Z,96.60
2019-05-21T03:41:38.850Z,81.90
2019-05-21T03:42:38.762Z,76.10
2019-05-21T03:43:38.702Z,75.30
2019-05-21T03:44:38.601Z,67.40
2019-05-21T03:45:38.511Z,67.60
2019-05-21T03:46:38.434Z,68.00
2019-05-21T03:47:38.345Z,65.60
2019-05-21T03:48:38.287Z,64.60
2019-05-21T03:49:38.176Z,64.80
2019-05-21T03:50:38.111Z,69.80
2019-05-21T03:51:38.017Z,73.50
2019-05-21T03:52:37.941Z,78.00
2019-05-21T03:53:37.878Z,76.20
2019-05-21T03:54:37.775Z,77.40
2019-05-21T03:55:37.688Z,76.70
2019-05-21T03:56:37.607Z,75.80
2019-05-21T03:57:37.519Z,68.40
2019-05-21T03:58:37.461Z,68.00
2019-05-21T03:59:37.355Z,68.90
2019-05-21T04:00:37.281Z,67.30
2019-05-21T04:01:37.187Z,61.50
2019-05-21T04:02:37.113Z,60.00
2019-05-21T04:03:37.035Z,58.00
2019-05-21T04:04:36.938Z,52.40
2019-05-21T04:05:36.876Z,57.40
2019-05-21T04:06:51.362Z,55.90
2019-05-21T04:07:36.696Z,57.50
2019-05-21T04:08:36.635Z,63.90
2019-05-21T04:09:36.533Z,68.70
2019-05-21T04:10:36.449Z,69.20
2019-05-21T04:11:36.367Z,72.80
2019-05-21T04:12:36.283Z,73.80
2019-05-21T04:13:36.215Z,82.30
2019-05-21T04:14:36.115Z,84.30
2019-05-21T04:15:36.028Z,93.30
2019-05-21T04:16:35.954Z,99.50
2019-05-21T04:17:35.865Z,106.80
2019-05-21T04:18:35.817Z,113.00
2019-05-21T04:19:35.713Z,110.90
2019-05-21T04:20:35.619Z,116.40
2019-05-21T04:21:35.546Z,117.60
2019-05-21T04:22:35.452Z,126.70
2019-05-21T04:23:35.389Z,129.00
2019-05-21T04:24:35.349Z,134.60
2019-05-21T04:25:35.214Z,145.00
2019-05-21T04:26:35.125Z,143.00
2019-05-21T04:27:35.047Z,143.30
2019-05-21T04:28:34.984Z,143.50
2019-05-21T04:29:34.876Z,151.50
2019-05-21T04:30:34.799Z,148.90
2019-05-21T04:31:34.716Z,156.00
2019-05-21T04:32:34.630Z,153.80
2019-05-21T04:33:34.590Z,154.60
2019-05-21T04:34:34.465Z,156.00
2019-05-21T04:35:34.399Z,159.20
2019-05-21T04:36:34.309Z,157.10
2019-05-21T04:37:34.253Z,152.20
2019-05-21T04:38:34.133Z,161.40
2019-05-21T04:39:34.077Z,150.90
2019-05-21T04:40:33.966Z,162.80
2019-05-21T04:41:33.883Z,159.60
2019-05-21T04:42:33.880Z,159.50
2019-05-21T04:43:33.723Z,161.00
2019-05-21T04:44:33.666Z,163.10
2019-05-21T04:45:33.666Z,170.60
2019-05-21T04:46:33.516Z,163.50
2019-05-21T04:47:33.393Z,165.10
2019-05-21T04:48:33.485Z,176.80
2019-05-21T04:49:33.246Z,162.80
2019-05-21T04:50:33.142Z,178.80
2019-05-21T04:51:33.091Z,166.20
2019-05-21T04:52:32.978Z,166.30
2019-05-21T04:53:32.898Z,165.40
2019-05-21T04:54:32.937Z,175.70
2019-05-21T04:55:32.729Z,174.70
2019-05-21T04:56:32.710Z,167.90
2019-05-21T04:57:32.568Z,175.60
2019-05-21T04:58:32.528Z,169.80
2019-05-21T04:59:32.419Z,170.60
2019-05-21T05:00:32.330Z,163.40
2019-05-21T05:01:32.233Z,170.90
2019-05-21T05:02:32.356Z,173.50
2019-05-21T05:03:32.070Z,185.20
2019-05-21T05:04:32.183Z,164.90
2019-05-21T05:05:31.911Z,170.90
2019-05-21T05:06:31.959Z,169.40
2019-05-21T05:07:31.740Z,166.50
2019-05-21T05:08:31.764Z,162.90
2019-05-21T05:09:31.585Z,159.80
2019-05-21T05:10:31.508Z,159.70
2019-05-21T05:11:31.524Z,163.50
2019-05-21T05:12:31.326Z,160.10
2019-05-21T05:13:31.243Z,152.50
2019-05-21T05:14:31.228Z,156.60
2019-05-21T05:15:31.098Z,151.80
2019-05-21T05:16:31.214Z,155.70
2019-05-21T05:17:30.930Z,154.70
2019-05-21T05:18:30.843Z,155.50
2019-05-21T05:19:30.788Z,153.90
2019-05-21T05:20:30.674Z,154.90
2019-05-21T05:21:30.586Z,152.50
2019-05-21T05:22:30.508Z,148.70
2019-05-21T05:23:30.418Z,151.60
2019-05-21T05:24:30.371Z,154.30
2019-05-21T05:25:30.255Z,143.10
2019-05-21T05:26:30.187Z,146.80
2019-05-21T05:27:30.093Z,146.10
2019-05-21T05:28:30.017Z,144.90
2019-05-21T05:29:29.950Z,149.20
2019-05-21T05:30:29.845Z,147.60
2019-05-21T05:31:29.771Z,145.80
2019-05-21T05:32:29.693Z,145.30
2019-05-21T05:33:29.596Z,145.00
2019-05-21T05:34:29.538Z,145.60
2019-05-21T05:35:29.431Z,147.50
2019-05-21T05:36:29.350Z,147.10
2019-05-21T05:37:42.832Z,135.20
2019-05-21T05:38:29.189Z,136.20
2019-05-21T05:39:29.127Z,146.00
2019-05-21T05:40:29.045Z,136.00
2019-05-21T05:41:28.999Z,130.00
2019-05-21T05:42:28.865Z,133.80
2019-05-21T05:43:28.771Z,134.00
2019-05-21T05:44:28.723Z,130.50
2019-05-21T05:45:28.612Z,131.70
2019-05-21T05:46:28.533Z,129.90
2019-05-21T05:47:28.442Z,129.50
2019-05-21T05:48:28.373Z,131.70
2019-05-21T05:49:28.298Z,126.40
2019-05-21T05:50:28.200Z,126.00
2019-05-21T05:51:28.125Z,128.20
2019-05-21T05:52:28.027Z,126.20
2019-05-21T05:53:27.949Z,125.50
2019-05-21T05:54:27.902Z,130.20
2019-05-21T05:55:27.787Z,123.20
2019-05-21T05:56:27.710Z,125.50
2019-05-21T05:57:27.619Z,128.70
2019-05-21T05:58:27.591Z,121.60
2019-05-21T05:59:27.458Z,124.30
2019-05-21T06:00:27.386Z,125.90
2019-05-21T06:01:27.294Z,125.60
2019-05-21T06:02:27.214Z,131.20
2019-05-21T06:03:27.130Z,125.90
2019-05-21T06:04:30.413Z,126.70
2019-05-21T06:05:26.976Z,123.00
2019-05-21T06:06:26.885Z,128.20
2019-05-21T06:07:26.797Z,125.40
2019-05-21T06:08:26.726Z,123.40
2019-05-21T06:09:26.642Z,129.00
2019-05-21T06:10:26.567Z,125.90
2019-05-21T06:11:26.470Z,131.80
2019-05-21T06:12:26.397Z,137.00
2019-05-21T06:13:26.304Z,134.60
2019-05-21T06:14:26.229Z,134.90
2019-05-21T06:15:26.155Z,142.50
2019-05-21T06:16:26.117Z,137.10
2019-05-21T06:17:25.981Z,139.50
2019-05-21T06:18:25.902Z,137.10
2019-05-21T06:19:25.839Z,144.00
2019-05-21T06:20:25.740Z,139.10
2019-05-21T06:21:25.652Z,142.40
2019-05-21T06:22:25.562Z,152.90
2019-05-21T06:23:25.492Z,133.60
2019-05-21T06:24:25.398Z,134.60
2019-05-21T06:25:25.338Z,136.00
2019-05-21T06:26:25.234Z,147.30
2019-05-21T06:27:25.155Z,141.90
2019-05-21T06:28:25.071Z,136.20
2019-05-21T06:29:24.991Z,137.20
2019-05-21T06:30:24.916Z,127.80
2019-05-21T06:31:24.897Z,132.90
2019-05-21T06:32:24.756Z,134.00
2019-05-21T06:33:24.659Z,134.20
2019-05-21T06:34:24.580Z,139.20
2019-05-21T06:35:24.516Z,134.70
2019-05-21T06:36:24.410Z,137.00
2019-05-21T06:37:24.322Z,136.70
2019-05-21T06:38:24.254Z,130.00
2019-05-21T06:39:24.164Z,135.30
2019-05-21T06:40:24.097Z,135.60
2019-05-21T06:41:24.000Z,138.00
2019-05-21T06:42:23.931Z,140.20
2019-05-21T06:43:23.845Z,136.60
2019-05-21T06:44:23.762Z,132.10
2019-05-21T06:45:23.701Z,130.60
2019-05-21T06:46:23.587Z,124.00
2019-05-21T06:47:23.517Z,125.50
2019-05-21T06:48:23.434Z,126.20
2019-05-21T06:49:23.343Z,121.60
2019-05-21T06:50:23.273Z,122.30
2019-05-21T06:51:23.186Z,122.10
2019-05-21T06:52:23.090Z,125.30
2019-05-21T06:53:23.010Z,126.20
2019-05-21T06:54:22.926Z,123.70
2019-05-21T06:55:22.869Z,123.90
2019-05-21T06:56:22.759Z,123.20
2019-05-21T06:57:22.685Z,119.80
2019-05-21T06:58:22.621Z,115.90
2019-05-21T06:59:22.515Z,115.20
2019-05-21T07:00:22.455Z,118.10
2019-05-21T07:01:28.281Z,115.90
2019-05-21T07:02:22.268Z,111.30
2019-05-21T07:03:22.200Z,106.90
2019-05-21T07:04:22.102Z,109.90
2019-05-21T07:05:22.038Z,110.10
2019-05-21T07:06:21.949Z,111.50
2019-05-21T07:07:21.863Z,109.60
2019-05-21T07:08:34.266Z,106.90
2019-05-21T07:09:21.696Z,110.70
2019-05-21T07:10:21.629Z,107.20
2019-05-21T07:11:21.528Z,100.50
2019-05-21T07:12:21.468Z,98.10
2019-05-21T07:13:21.364Z,104.00
2019-05-21T07:14:21.285Z,105.60
2019-05-21T07:15:21.218Z,101.00
2019-05-21T07:16:21.132Z,98.40
2019-05-21T07:17:21.035Z,98.20
2019-05-21T07:18:20.962Z,98.30
2019-05-21T07:19:20.877Z,99.20
2019-05-21T07:20:20.808Z,96.30
2019-05-21T07:21:20.709Z,92.60
2019-05-21T07:22:20.642Z,96.40
2019-05-21T07:23:20.553Z,97.10
2019-05-21T07:24:20.472Z,100.60
2019-05-21T07:25:20.393Z,99.60
2019-05-21T07:26:20.382Z,102.30
2019-05-21T07:27:20.213Z,102.70
2019-05-21T07:28:20.154Z,97.90
2019-05-21T07:29:20.098Z,95.10
2019-05-21T07:30:19.991Z,94.90
2019-05-21T07:31:19.887Z,96.10
2019-05-21T07:32:19.816Z,95.30
2019-05-21T07:33:19.730Z,95.70
2019-05-21T07:34:19.678Z,102.70
2019-05-21T07:35:19.565Z,93.30
2019-05-21T07:36:19.483Z,89.80
2019-05-21T07:37:19.395Z,88.50
2019-05-21T07:38:19.310Z,91.70
2019-05-21T07:39:19.239Z,87.90
2019-05-21T07:40:19.175Z,86.80
2019-05-21T07:41:20.338Z,82.10
2019-05-21T07:42:19.045Z,85.20
2019-05-21T07:43:18.897Z,87.80
2019-05-21T07:44:18.824Z,82.00
2019-05-21T07:45:18.759Z,86.10
2019-05-21T07:46:18.663Z,91.40
2019-05-21T07:47:18.575Z,86.80
2019-05-21T07:48:18.514Z,88.30
2019-05-21T07:49:18.403Z,82.20
2019-05-21T07:50:18.343Z,86.40
2019-05-21T07:51:18.256Z,92.00
2019-05-21T07:52:18.172Z,83.30
2019-05-21T07:53:18.078Z,88.60
2019-05-21T07:54:17.991Z,82.50
2019-05-21T07:55:17.932Z,89.40
2019-05-21T07:56:17.844Z,80.70
2019-05-21T07:57:17.746Z,77.30
2019-05-21T07:58:17.670Z,80.20
2019-05-21T07:59:17.589Z,87.00
2019-05-21T08:00:17.529Z,81.50
2019-05-21T08:01:17.418Z,81.60
2019-05-21T08:02:17.343Z,82.70
2019-05-21T08:03:17.255Z,78.70
2019-05-21T08:04:17.174Z,91.10
2019-05-21T08:05:17.112Z,83.70
2019-05-21T08:06:17.019Z,80.00
2019-05-21T08:07:16.931Z,85.90
2019-05-21T08:08:16.842Z,84.70
2019-05-21T08:09:16.756Z,84.60
2019-05-21T08:10:16.713Z,87.90
2019-05-21T08:11:16.597Z,77.80
2019-05-21T08:12:35.431Z,85.90
2019-05-21T08:13:16.439Z,85.70
2019-05-21T08:14:16.364Z,80.10
2019-05-21T08:15:16.275Z,84.60
2019-05-21T08:16:16.212Z,86.70
2019-05-21T08:17:16.121Z,85.50
2019-05-21T08:18:16.023Z,83.10
2019-05-21T08:19:15.945Z,85.70
2019-05-21T08:20:15.871Z,77.90
2019-05-21T08:21:15.787Z,87.80
2019-05-21T08:22:15.698Z,85.00
2019-05-21T08:23:15.619Z,84.20
2019-05-21T08:24:15.531Z,83.80
2019-05-21T08:25:15.454Z,83.90
2019-05-21T08:26:15.381Z,78.70
2019-05-21T08:27:15.293Z,81.80
2019-05-21T08:28:15.203Z,87.20
2019-05-21T08:29:15.121Z,80.80
2019-05-21T08:30:15.038Z,78.60
2019-05-21T08:31:14.968Z,78.00
2019-05-21T08:32:14.876Z,81.70
2019-05-21T08:33:14.807Z,78.60
2019-05-21T08:34:14.714Z,75.80
2019-05-21T08:35:14.621Z,72.70
2019-05-21T08:36:14.572Z,71.30
2019-05-21T08:37:14.473Z,76.60
2019-05-21T08:38:14.382Z,72.70
2019-05-21T08:39:27.650Z,73.60
2019-05-21T08:40:14.219Z,65.40
2019-05-21T08:41:14.179Z,65.80
2019-05-21T08:42:14.053Z,63.00
2019-05-21T08:43:13.994Z,57.60
2019-05-21T08:44:13.880Z,59.60
2019-05-21T08:45:13.798Z,60.00
2019-05-21T08:46:13.745Z,63.00
2019-05-21T08:47:13.633Z,61.50
2019-05-21T08:48:13.564Z,61.70
2019-05-21T08:49:13.470Z,67.40
2019-05-21T08:50:13.392Z,67.50
2019-05-21T08:51:13.329Z,72.60
2019-05-21T08:52:13.229Z,67.80
2019-05-21T08:53:13.149Z,75.60
2019-05-21T08:54:13.096Z,76.00
2019-05-21T08:55:12.980Z,72.20
2019-05-21T08:56:12.928Z,66.40
2019-05-21T08:57:12.813Z,72.00
2019-05-21T08:58:12.732Z,74.50
2019-05-21T08:59:12.657Z,65.60
2019-05-21T09:00:12.572Z,67.90
2019-05-21T09:01:12.493Z,62.80
2019-05-21T09:02:12.427Z,66.40
2019-05-21T09:03:12.333Z,65.80
2019-05-21T09:04:12.246Z,66.10
2019-05-21T09:05:12.160Z,62.40
2019-05-21T09:06:12.099Z,64.60
2019-05-21T09:07:11.990Z,69.40
2019-05-21T09:08:11.908Z,69.60
2019-05-21T09:09:11.824Z,59.60
2019-05-21T09:10:11.749Z,64.30
2019-05-21T09:11:11.670Z,60.10
2019-05-21T09:12:11.585Z,60.10
2019-05-21T09:13:11.616Z,58.80
2019-05-21T09:14:11.451Z,60.90
2019-05-21T09:15:11.333Z,60.90
2019-05-21T09:16:11.264Z,56.00
2019-05-21T09:17:11.163Z,54.10
2019-05-21T09:18:11.090Z,50.20
2019-05-21T09:19:10.998Z,52.40
2019-05-21T09:20:10.926Z,53.80
2019-05-21T09:21:10.844Z,50.50
2019-05-21T09:22:10.753Z,48.70
2019-05-21T09:23:10.681Z,43.40
2019-05-21T09:24:10.604Z,42.60
2019-05-21T09:25:10.503Z,44.30
2019-05-21T09:26:10.440Z,38.50
2019-05-21T09:27:10.344Z,42.20
2019-05-21T09:28:10.257Z,37.30
2019-05-21T09:29:10.192Z,40.70
2019-05-21T09:30:10.100Z,42.70
2019-05-21T09:31:10.048Z,39.40
2019-05-21T09:32:09.940Z,38.50
2019-05-21T09:33:09.848Z,37.20
2019-05-21T09:34:09.777Z,39.30
2019-05-21T09:35:09.690Z,38.30
2019-05-21T09:36:09.613Z,37.60
2019-05-21T09:37:19.401Z,40.40
2019-05-21T09:38:09.446Z,43.60
2019-05-21T09:39:09.361Z,38.60
2019-05-21T09:40:09.274Z,36.10
2019-05-21T09:41:09.209Z,35.60
2019-05-21T09:42:09.106Z,35.60
2019-05-21T09:43:09.043Z,33.60
2019-05-21T09:44:08.948Z,34.40
2019-05-21T09:45:08.881Z,32.30
2019-05-21T09:46:08.793Z,34.40
2019-05-21T09:47:08.743Z,33.60
2019-05-21T09:48:08.623Z,34.30
2019-05-21T09:49:08.537Z,34.10
2019-05-21T09:50:08.465Z,35.20
2019-05-21T09:51:08.394Z,35.50
2019-05-21T09:52:08.288Z,34.20
2019-05-21T09:53:08.212Z,39.00
2019-05-21T09:54:08.129Z,31.50
2019-05-21T09:55:08.046Z,32.40
2019-05-21T09:56:07.977Z,32.80
2019-05-21T09:57:07.879Z,33.60
2019-05-21T09:58:07.795Z,35.60
2019-05-21T09:59:07.740Z,35.50
2019-05-21T10:00:07.639Z,34.40
2019-05-21T10:01:07.563Z,34.90
2019-05-21T10:02:07.463Z,36.20
2019-05-21T10:03:07.401Z,36.50
2019-05-21T10:04:07.303Z,36.80
2019-05-21T10:05:07.230Z,29.80
2019-05-21T10:06:07.161Z,32.40
2019-05-21T10:07:07.068Z,28.30
2019-05-21T10:08:06.992Z,33.20
2019-05-21T10:09:06.898Z,28.30
2019-05-21T10:10:06.811Z,28.40
2019-05-21T10:11:06.760Z,28.60
2019-05-21T10:12:06.644Z,31.60
2019-05-21T10:13:06.567Z,30.50
2019-05-21T10:14:06.490Z,30.70
2019-05-21T10:15:06.404Z,30.50
2019-05-21T10:16:06.319Z,33.80
2019-05-21T10:17:06.261Z,33.50
2019-05-21T10:18:06.157Z,33.30
2019-05-21T10:19:06.076Z,34.30
2019-05-21T10:20:05.997Z,32.50
2019-05-21T10:21:05.906Z,32.50
2019-05-21T10:22:05.939Z,34.10
2019-05-21T10:23:05.748Z,34.00
2019-05-21T10:24:05.664Z,36.10
2019-05-21T10:25:05.593Z,30.00
2019-05-21T10:26:05.496Z,28.20
2019-05-21T10:27:05.441Z,30.40
2019-05-21T10:28:05.341Z,30.50
2019-05-21T10:29:05.266Z,33.20
2019-05-21T10:30:05.173Z,34.30
2019-05-21T10:31:05.100Z,29.80
2019-05-21T10:32:05.024Z,31.40
2019-05-21T10:33:04.928Z,32.00
2019-05-21T10:34:04.848Z,32.50
2019-05-21T10:35:05.040Z,33.20
2019-05-21T10:36:04.679Z,33.30
2019-05-21T10:37:04.616Z,34.80
2019-05-21T10:38:04.521Z,33.20
2019-05-21T10:39:04.434Z,37.10
2019-05-21T10:40:04.360Z,38.10
2019-05-21T10:41:04.273Z,36.20
2019-05-21T10:42:04.205Z,35.30
2019-05-21T10:43:04.129Z,36.90
2019-05-21T10:44:04.031Z,34.90
2019-05-21T10:45:03.943Z,34.60
2019-05-21T10:46:03.863Z,34.40
2019-05-21T10:47:03.793Z,35.30
2019-05-21T10:48:03.699Z,38.50
2019-05-21T10:49:03.618Z,35.40
2019-05-21T10:50:03.533Z,37.00
2019-05-21T10:51:03.448Z,38.20
2019-05-21T10:52:03.392Z,37.50
2019-05-21T10:53:03.291Z,37.00
2019-05-21T10:54:03.210Z,39.90
2019-05-21T10:55:03.127Z,36.20
2019-05-21T10:56:03.211Z,40.00
2019-05-21T10:57:02.978Z,41.20
2019-05-21T10:58:02.886Z,40.30
2019-05-21T10:59:02.808Z,40.00
2019-05-21T11:00:02.717Z,39.10
2019-05-21T11:01:02.635Z,41.00
2019-05-21T11:02:02.579Z,41.10
2019-05-21T11:03:02.472Z,41.50
2019-05-21T11:04:02.384Z,43.40
2019-05-21T11:05:02.312Z,42.20
2019-05-21T11:06:10.218Z,43.90
2019-05-21T11:07:02.190Z,42.10
2019-05-21T11:08:22.847Z,43.50
2019-05-21T11:09:01.974Z,44.90
2019-05-21T11:10:01.907Z,45.00
2019-05-21T11:11:01.818Z,46.90
2019-05-21T11:12:01.746Z,44.70
2019-05-21T11:13:01.645Z,46.40
2019-05-21T11:14:01.577Z,44.80
2019-05-21T11:15:01.493Z,42.90
2019-05-21T11:16:01.420Z,44.60
2019-05-21T11:17:01.351Z,43.30
2019-05-21T11:18:10.642Z,47.30
2019-05-21T11:19:01.161Z,44.20
2019-05-21T11:20:01.083Z,43.50
2019-05-21T11:21:01.008Z,42.30
2019-05-21T11:22:00.932Z,40.50
2019-05-21T11:23:00.834Z,44.20
2019-05-21T11:24:00.827Z,39.40
2019-05-21T11:25:00.677Z,39.40
2019-05-21T11:26:00.589Z,41.30
2019-05-21T11:27:00.531Z,44.10
2019-05-21T11:28:00.423Z,42.30
2019-05-21T11:29:00.345Z,41.50
2019-05-21T11:30:00.273Z,44.00
2019-05-21T11:31:00.181Z,42.10
2019-05-21T11:32:00.106Z,44.80
2019-05-21T11:33:00.015Z,42.40
2019-05-21T11:33:59.934Z,40.30
2019-05-21T11:34:59.857Z,39.40
2019-05-21T11:35:59.763Z,42.50
2019-05-21T11:36:59.725Z,42.10
2019-05-21T11:37:59.599Z,42.30
2019-05-21T11:38:59.523Z,39.80
2019-05-21T11:39:59.447Z,40.70
2019-05-21T11:40:59.380Z,38.70
2019-05-21T11:41:59.279Z,44.80
2019-05-21T11:42:59.252Z,43.90
2019-05-21T11:43:59.113Z,40.50
2019-05-21T11:44:59.029Z,40.00
2019-05-21T11:46:02.692Z,36.90
2019-05-21T11:46:58.864Z,38.10
2019-05-21T11:47:58.796Z,35.90
2019-05-21T11:48:58.708Z,36.50
2019-05-21T11:49:58.634Z,38.20
2019-05-21T11:50:58.548Z,36.40
2019-05-21T11:51:58.458Z,36.50
2019-05-21T11:52:58.396Z,38.20
2019-05-21T11:53:58.295Z,38.70
2019-05-21T11:54:58.215Z,35.50
2019-05-21T11:55:58.137Z,38.80
2019-05-21T11:56:58.159Z,40.50
2019-05-21T11:57:57.979Z,39.30
2019-05-21T11:58:57.899Z,40.30
2019-05-21T11:59:57.799Z,38.60
2019-05-21T12:00:57.729Z,39.10
2019-05-21T12:01:57.654Z,40.60
2019-05-21T12:02:57.600Z,40.10
2019-05-21T12:03:57.476Z,37.50
2019-05-21T12:04:57.405Z,40.00
2019-05-21T12:05:57.313Z,41.20
2019-05-21T12:06:57.239Z,41.90
2019-05-21T12:07:57.159Z,43.50
2019-05-21T12:08:57.479Z,42.80
2019-05-21T12:09:56.990Z,41.90
2019-05-21T12:10:56.905Z,45.20
2019-05-21T12:11:56.823Z,44.40
2019-05-21T12:12:56.761Z,45.40
2019-05-21T12:13:56.666Z,45.20
2019-05-21T12:14:56.586Z,47.20
2019-05-21T12:15:56.505Z,46.20
2019-05-21T12:16:56.425Z,44.70
2019-05-21T12:17:56.353Z,47.60
2019-05-21T12:18:56.259Z,43.30
2019-05-21T12:19:56.173Z,46.30
2019-05-21T12:20:56.091Z,45.70
2019-05-21T12:21:56.002Z,45.10
2019-05-21T12:22:55.953Z,45.40
2019-05-21T12:23:55.846Z,45.30
2019-05-21T12:24:55.762Z,48.60
2019-05-21T12:25:55.679Z,46.70
2019-05-21T12:26:55.607Z,46.80
2019-05-21T12:27:55.527Z,42.70
2019-05-21T12:28:55.433Z,47.90
2019-05-21T12:29:55.366Z,48.00
2019-05-21T12:30:55.274Z,43.20
2019-05-21T12:31:55.188Z,43.90
2019-05-21T12:32:55.131Z,47.70
2019-05-21T12:33:55.022Z,43.20
2019-05-21T12:34:54.950Z,44.60
2019-05-21T12:35:54.868Z,42.70
2019-05-21T12:36:54.796Z,45.70
2019-05-21T12:37:54.709Z,46.80
2019-05-21T12:38:54.625Z,44.20
2019-05-21T12:39:54.542Z,43.80
2019-05-21T12:40:54.456Z,47.00
2019-05-21T12:41:54.375Z,44.50
2019-05-21T12:42:54.327Z,46.30
2019-05-21T12:43:54.205Z,49.80
2019-05-21T12:44:54.134Z,47.70
2019-05-21T12:45:54.048Z,49.10